Time;durP1;ratioP1;P1;durP2;ratioP2;P2;SDS_P1;SDS_P2;PMS_P1;PMS_P2;Temp;Humidity;BMP_temperature;BMP_pressure;BME280_temperature;BME280_humidity;BME280_pressure;Samples;Min_cycle;Max_cycle;Signal;HPM_P1;HPM_P2
2021/05/28 00:02:18;;;;;;;17.57;8.40;;;8.80;99.90;;;;;;5072371;28;20604;-59
2021/05/28 00:04:45;;;;;;;16.83;8.77;;;8.80;99.90;;;;;;5072105;28;20236;-58
2021/05/28 00:07:11;;;;;;;18.77;8.77;;;8.80;99.90;;;;;;5072339;28;20214;-58
2021/05/28 00:09:37;;;;;;;23.43;9.30;;;8.80;99.90;;;;;;5072127;28;20210;-58
2021/05/28 00:12:05;;;;;;;20.53;9.33;;;8.80;99.90;;;;;;5072125;28;20209;-59
2021/05/28 00:14:32;;;;;;;19.30;8.37;;;8.70;99.90;;;;;;5072288;28;20209;-57
2021/05/28 00:16:58;;;;;;;21.93;8.90;;;8.80;99.90;;;;;;5072144;28;20230;-59
2021/05/28 00:19:24;;;;;;;25.37;12.20;;;8.80;99.90;;;;;;5072303;28;20218;-59
2021/05/28 00:21:50;;;;;;;21.17;10.17;;;8.80;99.90;;;;;;5072270;28;20245;-59
2021/05/28 00:24:16;;;;;;;12.13;9.63;;;8.70;99.90;;;;;;5073320;28;20213;-59
2021/05/28 00:26:43;;;;;;;25.50;10.33;;;8.70;99.90;;;;;;5072339;28;20226;-58
2021/05/28 00:29:10;;;;;;;15.03;9.23;;;8.80;99.90;;;;;;5072109;28;20234;-55
2021/05/28 00:31:36;;;;;;;15.23;8.90;;;8.80;99.90;;;;;;5071728;28;20211;-58
2021/05/28 00:34:02;;;;;;;19.53;9.50;;;8.80;1.00;;;;;;5072003;28;20206;-57
2021/05/28 00:36:28;;;;;;;21.10;9.77;;;8.80;1.00;;;;;;5071890;28;20230;-56
2021/05/28 00:38:55;;;;;;;17.20;9.30;;;8.80;1.00;;;;;;5072171;28;20218;-55
2021/05/28 00:41:21;;;;;;;21.70;10.17;;;8.90;1.00;;;;;;5071935;28;20217;-59
2021/05/28 00:43:47;;;;;;;18.47;9.87;;;8.90;1.00;;;;;;5072043;28;20209;-56
2021/05/28 00:46:14;;;;;;;24.27;11.40;;;8.90;1.00;;;;;;5071861;28;20223;-57
2021/05/28 00:48:40;;;;;;;16.33;10.30;;;9.00;1.00;;;;;;5071752;28;20214;-58
2021/05/28 00:51:07;;;;;;;19.20;11.07;;;9.00;1.00;;;;;;5071450;28;20730;-58
2021/05/28 00:53:33;;;;;;;22.00;10.33;;;9.00;1.00;;;;;;5071859;28;20306;-58
2021/05/28 00:56:00;;;;;;;19.57;10.60;;;9.00;1.00;;;;;;5071744;28;20317;-57
2021/05/28 00:58:27;;;;;;;18.03;10.70;;;9.10;1.00;;;;;;5071761;28;20209;-58
2021/05/28 01:00:53;;;;;;;13.90;9.73;;;9.10;1.00;;;;;;5071679;28;20230;-57
2021/05/28 01:03:20;;;;;;;21.23;10.30;;;9.20;1.00;;;;;;5071620;28;20671;-58
2021/05/28 01:05:47;;;;;;;22.43;10.73;;;9.20;99.90;;;;;;5071809;28;20239;-59
2021/05/28 01:08:13;;;;;;;20.30;10.13;;;9.20;99.90;;;;;;5072605;28;20211;-57
2021/05/28 01:10:39;;;;;;;18.10;10.03;;;9.10;99.90;;;;;;5075667;28;20203;-58
2021/05/28 01:13:07;;;;;;;17.37;10.03;;;9.10;1.00;;;;;;5076053;28;20212;-59
2021/05/28 01:15:33;;;;;;;16.13;9.03;;;9.20;1.00;;;;;;5075970;28;20287;-59
2021/05/28 01:18:00;;;;;;;22.23;10.67;;;9.20;1.00;;;;;;5075748;28;20215;-57
2021/05/28 01:20:27;;;;;;;19.13;10.83;;;9.20;1.00;;;;;;5075016;28;20247;-59
2021/05/28 01:22:56;;;;;;;19.73;11.60;;;9.10;1.00;;;;;;5075625;28;20215;-59
2021/05/28 01:25:23;;;;;;;18.97;11.23;;;9.00;1.00;;;;;;5075088;28;20791;-60
2021/05/28 01:27:50;;;;;;;16.13;11.10;;;9.00;1.00;;;;;;5075330;28;20207;-58
2021/05/28 01:30:17;;;;;;;20.53;11.30;;;9.10;1.00;;;;;;5075244;28;20204;-59
2021/05/28 01:32:45;;;;;;;19.83;10.83;;;9.20;1.00;;;;;;5075136;28;20201;-59
2021/05/28 01:35:13;;;;;;;17.00;10.53;;;9.20;1.00;;;;;;5075170;28;20236;-55
2021/05/28 01:37:40;;;;;;;18.73;10.00;;;9.30;1.00;;;;;;5075282;28;20208;-59
2021/05/28 01:40:08;;;;;;;17.80;10.00;;;9.30;99.90;;;;;;5075086;28;20642;-58
2021/05/28 01:42:35;;;;;;;19.93;10.47;;;9.30;99.90;;;;;;5075329;28;20207;-55
2021/05/28 01:45:03;;;;;;;15.67;9.87;;;9.30;99.90;;;;;;5075031;28;20592;-59
2021/05/28 01:47:29;;;;;;;19.73;10.80;;;9.30;99.90;;;;;;5074923;28;20201;-57
2021/05/28 01:49:55;;;;;;;19.03;10.17;;;9.30;99.90;;;;;;5075285;28;20692;-56
2021/05/28 01:52:23;;;;;;;17.40;10.80;;;9.30;99.90;;;;;;5075170;28;20245;-57
2021/05/28 01:54:49;;;;;;;19.70;10.27;;;9.30;99.90;;;;;;5074822;28;20235;-57
2021/05/28 01:57:17;;;;;;;19.37;9.63;;;9.30;99.90;;;;;;5075092;28;20208;-58
2021/05/28 01:59:44;;;;;;;15.40;9.30;;;9.30;99.90;;;;;;5075145;28;20581;-56
2021/05/28 02:02:10;;;;;;;10.53;8.63;;;9.20;99.90;;;;;;5075064;28;20237;-57
2021/05/28 02:04:36;;;;;;;14.83;9.17;;;9.20;99.90;;;;;;5075601;28;20215;-58
2021/05/28 02:07:03;;;;;;;21.27;10.30;;;9.20;99.90;;;;;;5074933;28;20218;-57
2021/05/28 02:09:30;;;;;;;21.27;10.57;;;9.20;99.90;;;;;;5074532;28;20205;-54
2021/05/28 02:11:58;;;;;;;18.37;10.60;;;9.10;99.90;;;;;;5074331;28;20298;-58
2021/05/28 02:14:25;;;;;;;18.57;9.80;;;9.20;99.90;;;;;;5074246;28;20214;-57
2021/05/28 02:16:52;;;;;;;19.13;10.27;;;9.20;99.90;;;;;;5074268;28;20213;-58
2021/05/28 02:19:18;;;;;;;23.47;10.63;;;9.20;99.90;;;;;;5074473;28;20233;-58
2021/05/28 02:21:44;;;;;;;30.00;11.83;;;9.10;99.90;;;;;;5073516;28;20817;-57
2021/05/28 02:24:14;;;;;;;31.07;12.10;;;9.00;99.90;;;;;;5074245;28;20207;-57
2021/05/28 02:26:40;;;;;;;23.77;11.80;;;9.00;99.90;;;;;;5074166;28;20898;-58
2021/05/28 02:29:06;;;;;;;21.37;11.67;;;8.90;1.00;;;;;;5074059;28;20633;-59
2021/05/28 02:31:33;;;;;;;21.40;10.47;;;8.90;99.90;;;;;;5074326;28;20598;-57
2021/05/28 02:34:00;;;;;;;19.93;10.03;;;8.90;99.90;;;;;;5074314;28;20214;-53
2021/05/28 02:36:26;;;;;;;13.33;9.23;;;8.90;99.90;;;;;;5074250;28;20600;-58
2021/05/28 02:38:52;;;;;;;15.13;9.70;;;8.80;99.90;;;;;;5074013;28;20231;-58
2021/05/28 02:41:18;;;;;;;24.83;10.33;;;8.80;99.90;;;;;;5073788;28;20207;-58
2021/05/28 02:43:44;;;;;;;20.93;11.03;;;8.80;99.90;;;;;;5073861;28;20214;-57
2021/05/28 02:46:10;;;;;;;19.67;10.90;;;8.70;99.90;;;;;;5074262;28;20228;-58
2021/05/28 02:48:37;;;;;;;20.93;10.47;;;8.80;99.90;;;;;;5074160;28;20663;-58
2021/05/28 02:51:04;;;;;;;17.90;10.13;;;8.70;99.90;;;;;;5073726;28;20204;-57
2021/05/28 02:53:34;;;;;;;17.60;9.87;;;8.70;99.90;;;;;;5073969;28;20205;-54
2021/05/28 02:56:00;;;;;;;19.70;11.07;;;8.60;99.90;;;;;;5073377;28;20241;-56
2021/05/28 02:58:26;;;;;;;23.20;10.57;;;8.60;99.90;;;;;;5073565;28;20207;-58
2021/05/28 03:00:52;;;;;;;20.33;10.27;;;8.60;99.90;;;;;;5073421;28;20232;-54
2021/05/28 03:03:19;;;;;;;19.33;11.17;;;8.50;99.90;;;;;;5073794;28;20206;-58
2021/05/28 03:05:46;;;;;;;20.60;9.83;;;8.50;99.90;;;;;;5073538;28;20253;-57
2021/05/28 03:08:13;;;;;;;16.73;10.47;;;8.50;99.90;;;;;;5073611;28;20297;-59
2021/05/28 03:10:39;;;;;;;21.10;10.33;;;8.40;99.90;;;;;;5073134;28;20569;-56
2021/05/28 03:13:05;;;;;;;16.90;11.13;;;8.40;99.90;;;;;;5073293;28;20212;-56
2021/05/28 03:15:31;;;;;;;21.07;11.63;;;8.40;99.90;;;;;;5073378;28;20222;-55
2021/05/28 03:17:58;;;;;;;19.83;11.57;;;8.40;99.90;;;;;;5073462;28;20574;-58
2021/05/28 03:20:27;;;;;;;21.60;11.87;;;8.40;99.90;;;;;;5073003;28;20595;-56
2021/05/28 03:22:54;;;;;;;26.10;12.00;;;8.30;99.90;;;;;;5073150;28;20264;-58
2021/05/28 03:25:21;;;;;;;32.03;13.87;;;8.20;99.90;;;;;;5072707;28;20229;-58
2021/05/28 03:27:48;;;;;;;23.53;12.13;;;8.20;99.90;;;;;;5073176;28;20266;-56
2021/05/28 03:30:16;;;;;;;26.80;11.90;;;8.30;99.90;;;;;;5072995;28;20574;-60
2021/05/28 03:32:42;;;;;;;23.47;12.77;;;8.30;99.90;;;;;;5071886;28;20206;-57
2021/05/28 03:35:09;;;;;;;35.20;13.80;;;8.30;99.90;;;;;;5072855;28;20245;-59
2021/05/28 03:37:35;;;;;;;38.73;14.83;;;8.30;99.90;;;;;;5072986;28;20214;-57
2021/05/28 03:40:02;;;;;;;115.50;18.33;;;8.30;99.90;;;;;;5072570;28;20227;-59
2021/05/28 03:42:28;;;;;;;105.20;19.73;;;8.30;99.90;;;;;;5073165;28;20211;-58
2021/05/28 03:44:54;;;;;;;124.67;20.60;;;8.30;99.90;;;;;;5072628;28;20226;-58
2021/05/28 03:47:21;;;;;;;124.93;20.27;;;8.30;99.90;;;;;;5072752;28;20235;-59
2021/05/28 03:49:47;;;;;;;83.23;19.40;;;8.40;99.90;;;;;;5072619;28;20206;-56
2021/05/28 03:52:14;;;;;;;150.27;22.33;;;8.40;99.90;;;;;;5072385;28;20214;-58
2021/05/28 03:54:40;;;;;;;52.70;18.67;;;8.50;99.90;;;;;;5072299;28;20250;-54
2021/05/28 03:57:08;;;;;;;245.53;24.27;;;8.50;99.90;;;;;;5071230;28;20240;-58
2021/05/28 03:59:34;;;;;;;44.97;19.47;;;8.50;99.90;;;;;;5071808;28;20698;-57
2021/05/28 04:02:00;;;;;;;50.43;18.73;;;8.50;99.90;;;;;;5072404;28;20202;-57
2021/05/28 04:04:26;;;;;;;73.13;19.73;;;8.60;1.00;;;;;;5070794;28;20251;-58
2021/05/28 04:06:52;;;;;;;64.80;20.53;;;8.60;1.00;;;;;;5068480;28;20324;-57
2021/05/28 04:09:18;;;;;;;70.67;20.80;;;8.60;1.00;;;;;;5071793;28;20469;-59
2021/05/28 04:11:45;;;;;;;75.40;20.40;;;8.60;1.00;;;;;;5071910;28;20620;-59
2021/05/28 04:14:14;;;;;;;79.90;22.10;;;8.70;1.00;;;;;;5070079;28;20202;-60
2021/05/28 04:16:40;;;;;;;66.90;22.90;;;8.70;1.00;;;;;;5072212;28;20226;-57
2021/05/28 04:19:06;;;;;;;64.30;22.00;;;8.70;1.00;;;;;;5072127;28;20212;-58
2021/05/28 04:21:32;;;;;;;118.60;22.77;;;8.70;1.00;;;;;;5071524;28;20221;-58
2021/05/28 04:24:00;;;;;;;96.13;22.27;;;8.80;1.00;;;;;;5072345;28;20234;-58
2021/05/28 04:26:26;;;;;;;232.27;24.90;;;8.80;1.00;;;;;;5071984;28;20228;-58
2021/05/28 04:28:52;;;;;;;202.30;23.37;;;8.90;1.00;;;;;;5072157;28;20209;-57
2021/05/28 04:31:19;;;;;;;267.30;25.90;;;8.90;1.00;;;;;;5071806;28;20207;-55
2021/05/28 04:33:45;;;;;;;319.30;26.73;;;8.90;1.00;;;;;;5072244;28;20280;-59
2021/05/28 04:36:11;;;;;;;298.50;30.00;;;8.80;1.00;;;;;;5072379;28;20815;-59
2021/05/28 04:38:38;;;;;;;530.37;34.47;;;8.80;1.00;;;;;;5072889;28;20715;-58
2021/05/28 04:41:04;;;;;;;397.43;33.03;;;8.70;1.00;;;;;;5072247;28;20223;-59
2021/05/28 04:43:30;;;;;;;396.03;30.83;;;8.70;1.00;;;;;;5071423;28;20213;-58
2021/05/28 04:45:57;;;;;;;304.73;30.10;;;8.70;1.00;;;;;;5072042;28;20228;-58
2021/05/28 04:48:23;;;;;;;257.63;28.20;;;8.70;1.00;;;;;;5071925;28;20227;-57
2021/05/28 04:50:50;;;;;;;163.93;26.67;;;8.70;1.00;;;;;;5072980;28;20203;-60
2021/05/28 04:53:16;;;;;;;152.53;26.70;;;8.70;9.80;;;;;;5073462;28;20204;-60
2021/05/28 04:55:43;;;;;;;221.17;27.83;;;8.70;47.90;;;;;;5073042;28;20244;-59
2021/05/28 04:58:09;;;;;;;273.47;32.23;;;8.80;90.80;;;;;;5071812;28;20209;-57
2021/05/28 05:00:35;;;;;;;244.63;29.63;;;8.90;66.30;;;;;;5071713;28;20222;-56
2021/05/28 05:03:03;;;;;;;232.30;27.20;;;8.90;52.90;;;;;;5072113;28;20213;-57
2021/05/28 05:05:31;;;;;;;300.30;34.20;;;8.70;1.00;;;;;;5072011;28;20230;-59
2021/05/28 05:07:57;;;;;;;257.53;32.97;;;8.80;80.50;;;;;;5071832;28;20706;-60
2021/05/28 05:10:23;;;;;;;347.67;36.83;;;8.80;99.70;;;;;;5071939;28;20199;-61
2021/05/28 05:12:49;;;;;;;260.03;35.17;;;8.90;99.90;;;;;;5071725;28;20206;-61
2021/05/28 05:15:15;;;;;;;340.07;38.37;;;9.00;99.90;;;;;;5071720;28;20231;-61
2021/05/28 05:17:41;;;;;;;327.67;37.70;;;9.00;99.90;;;;;;5070957;28;20236;-61
2021/05/28 05:20:09;;;;;;;370.83;41.20;;;9.00;99.90;;;;;;5071189;28;20226;-60
2021/05/28 05:22:36;;;;;;;311.30;36.80;;;9.10;99.90;;;;;;5071736;28;20212;-61
2021/05/28 05:25:03;;;;;;;247.83;38.23;;;9.00;99.90;;;;;;5071579;28;20222;-61
2021/05/28 05:27:29;;;;;;;102.27;31.93;;;9.00;99.90;;;;;;5071500;28;20211;-58
2021/05/28 05:29:55;;;;;;;92.37;31.80;;;9.20;99.90;;;;;;5071441;28;20202;-59
2021/05/28 05:32:21;;;;;;;113.27;32.07;;;9.30;99.90;;;;;;5071481;28;20210;-61
2021/05/28 05:34:47;;;;;;;124.60;32.40;;;9.30;54.00;;;;;;5071054;28;20291;-59
2021/05/28 05:37:14;;;;;;;117.33;30.90;;;9.30;41.10;;;;;;5071601;28;20204;-58
2021/05/28 05:39:40;;;;;;;76.77;31.20;;;9.40;54.90;;;;;;5071361;28;20276;-58
2021/05/28 05:42:07;;;;;;;66.93;32.10;;;9.40;54.10;;;;;;5071016;28;20207;-57
2021/05/28 05:44:33;;;;;;;65.77;30.27;;;9.50;46.80;;;;;;5071240;28;20216;-58
2021/05/28 05:47:00;;;;;;;53.43;27.87;;;9.70;5.00;;;;;;5071165;28;20205;-60
2021/05/28 05:49:26;;;;;;;62.27;28.03;;;9.70;1.00;;;;;;5071489;28;20264;-58
2021/05/28 05:51:52;;;;;;;53.13;26.87;;;9.60;99.90;;;;;;5070905;28;20629;-59
2021/05/28 05:54:18;;;;;;;61.63;28.30;;;9.60;99.90;;;;;;5071304;28;20220;-60
2021/05/28 05:56:45;;;;;;;80.73;30.20;;;9.60;99.90;;;;;;5073963;28;20233;-61
2021/05/28 05:59:11;;;;;;;65.90;29.57;;;9.40;99.90;;;;;;5074822;28;20718;-62
2021/05/28 06:01:38;;;;;;;66.60;30.63;;;9.40;99.90;;;;;;5074298;28;20236;-60
2021/05/28 06:04:05;;;;;;;68.53;33.40;;;9.40;99.90;;;;;;5074926;28;20203;-59
2021/05/28 06:06:31;;;;;;;58.73;32.37;;;9.50;99.90;;;;;;5074691;28;20278;-60
2021/05/28 06:08:57;;;;;;;67.63;34.37;;;9.60;99.90;;;;;;5074888;28;20287;-59
2021/05/28 06:11:23;;;;;;;68.27;33.37;;;9.70;99.90;;;;;;5074393;28;20574;-60
2021/05/28 06:13:50;;;;;;;60.07;29.57;;;9.70;99.90;;;;;;5074459;28;20211;-58
2021/05/28 06:16:16;;;;;;;47.40;26.70;;;9.80;99.90;;;;;;5074571;28;20263;-58
2021/05/28 06:18:42;;;;;;;46.73;27.37;;;9.80;99.90;;;;;;5074664;28;20205;-61
2021/05/28 06:21:09;;;;;;;52.23;27.13;;;9.80;99.90;;;;;;5074169;28;20221;-61
2021/05/28 06:23:35;;;;;;;55.17;28.03;;;9.90;99.90;;;;;;5074473;28;20209;-61
2021/05/28 06:26:01;;;;;;;51.93;27.23;;;9.90;99.90;;;;;;5075084;28;20232;-60
2021/05/28 06:28:27;;;;;;;50.63;27.97;;;9.80;99.90;;;;;;5074209;28;20204;-61
2021/05/28 06:30:56;;;;;;;57.47;30.47;;;9.70;99.90;;;;;;5074751;28;20218;-58
2021/05/28 06:33:22;;;;;;;52.33;28.30;;;9.70;99.90;;;;;;5074844;28;20216;-59
2021/05/28 06:35:48;;;;;;;47.50;25.20;;;9.90;99.90;;;;;;5074120;28;20741;-60
2021/05/28 06:38:14;;;;;;;49.07;27.27;;;9.90;99.90;;;;;;5074647;28;20231;-59
2021/05/28 06:40:41;;;;;;;54.07;27.60;;;9.80;99.90;;;;;;5074300;28;20221;-63
2021/05/28 06:43:07;;;;;;;42.53;24.90;;;10.00;99.90;;;;;;5074129;28;20201;-62
2021/05/28 06:45:36;;;;;;;37.93;23.37;;;10.30;99.90;;;;;;5074533;28;20594;-60
2021/05/28 06:48:03;;;;;;;39.77;22.63;;;10.30;99.90;;;;;;5074278;28;20687;-58
2021/05/28 06:50:31;;;;;;;32.43;20.17;;;10.40;57.30;;;;;;5073924;28;20208;-61
2021/05/28 06:52:58;;;;;;;33.77;21.70;;;10.50;1.00;;;;;;5073983;28;20696;-59
2021/05/28 06:55:24;;;;;;;38.60;22.33;;;10.40;1.00;;;;;;5073735;28;20585;-60
2021/05/28 06:57:51;;;;;;;38.13;23.00;;;10.40;1.00;;;;;;5073554;28;20212;-60
2021/05/28 07:00:18;;;;;;;48.03;29.00;;;10.50;1.00;;;;;;5073324;28;20221;-61
2021/05/28 07:02:44;;;;;;;59.93;31.43;;;10.20;1.00;;;;;;5074181;28;20209;-60
2021/05/28 07:05:12;;;;;;;53.93;29.30;;;10.20;26.40;;;;;;5074202;28;20221;-61
2021/05/28 07:07:40;;;;;;;44.70;26.53;;;10.40;93.20;;;;;;5073806;28;20212;-59
2021/05/28 07:10:07;;;;;;;46.20;26.07;;;10.50;29.70;;;;;;5072997;28;20664;-59
2021/05/28 07:12:34;;;;;;;40.93;24.33;;;10.50;1.00;;;;;;5073277;28;20221;-59
2021/05/28 07:15:00;;;;;;;38.77;23.77;;;10.60;1.00;;;;;;5073316;28;20263;-61
2021/05/28 07:17:26;;;;;;;40.87;23.60;;;10.70;1.00;;;;;;5073378;28;20208;-61
2021/05/28 07:19:52;;;;;;;42.67;26.07;;;10.60;1.00;;;;;;5072876;28;20223;-60
2021/05/28 07:22:19;;;;;;;40.27;23.57;;;10.80;1.00;;;;;;5073289;28;20208;-60
2021/05/28 07:24:45;;;;;;;39.93;24.40;;;10.70;1.00;;;;;;5073078;28;20274;-60
2021/05/28 07:27:11;;;;;;;39.07;24.53;;;10.70;1.00;;;;;;5073035;28;20209;-61
2021/05/28 07:29:38;;;;;;;44.57;24.93;;;10.80;1.00;;;;;;5072912;28;20270;-60
2021/05/28 07:32:04;;;;;;;41.33;25.50;;;10.60;1.00;;;;;;5072792;28;20200;-61
2021/05/28 07:34:30;;;;;;;37.57;22.23;;;10.70;1.00;;;;;;5073224;28;20204;-60
2021/05/28 07:36:57;;;;;;;34.30;21.97;;;10.10;1.00;;;;;;5072875;28;20222;-60
2021/05/28 07:39:23;;;;;;;48.23;27.33;;;10.00;1.00;;;;;;5072826;28;20210;-59
2021/05/28 07:41:50;;;;;;;52.77;28.73;;;10.00;1.00;;;;;;5072582;28;20204;-60
2021/05/28 07:44:16;;;;;;;54.07;31.73;;;10.20;1.00;;;;;;5072850;28;20251;-57
2021/05/28 07:46:44;;;;;;;59.87;31.83;;;10.10;1.00;;;;;;5072894;28;20280;-58
2021/05/28 07:49:11;;;;;;;60.17;31.13;;;10.00;1.00;;;;;;5072888;28;20208;-60
2021/05/28 07:51:37;;;;;;;62.60;34.07;;;9.70;1.00;;;;;;5072314;28;20207;-60
2021/05/28 07:54:04;;;;;;;63.40;33.50;;;9.70;30.50;;;;;;5072735;28;20680;-60
2021/05/28 07:56:31;;;;;;;60.37;33.50;;;9.80;35.30;;;;;;5072635;28;20232;-61
2021/05/28 07:58:58;;;;;;;63.53;31.93;;;9.60;7.30;;;;;;5072536;28;20211;-60
2021/05/28 08:01:24;;;;;;;53.10;29.33;;;9.60;72.20;;;;;;5072511;28;20224;-60
2021/05/28 08:03:50;;;;;;;49.00;26.27;;;9.70;23.30;;;;;;5072828;28;20261;-60
2021/05/28 08:06:16;;;;;;;48.53;28.03;;;9.60;1.00;;;;;;5072677;28;20250;-58
2021/05/28 08:08:42;;;;;;;47.17;26.83;;;9.90;1.00;;;;;;5072274;28;20205;-59
2021/05/28 08:11:08;;;;;;;49.03;27.63;;;10.20;1.00;;;;;;5071903;28;20658;-58
2021/05/28 08:13:36;;;;;;;52.83;27.37;;;10.40;1.00;;;;;;5072322;28;20854;-61
2021/05/28 08:16:02;;;;;;;46.73;27.73;;;10.50;1.00;;;;;;5072354;28;20228;-58
2021/05/28 08:18:29;;;;;;;47.97;27.63;;;10.60;1.00;;;;;;5071639;28;20212;-59
2021/05/28 08:20:55;;;;;;;52.13;27.50;;;10.40;1.00;;;;;;5071954;28;20584;-59
2021/05/28 08:23:22;;;;;;;54.07;28.57;;;10.60;1.00;;;;;;5071883;28;20620;-58
2021/05/28 08:25:49;;;;;;;46.23;25.73;;;10.80;1.00;;;;;;5072053;28;20747;-57
2021/05/28 08:28:15;;;;;;;49.57;26.93;;;11.10;1.00;;;;;;5072092;28;20735;-59
2021/05/28 08:30:43;;;;;;;43.80;23.03;;;11.00;1.00;;;;;;5071837;28;20205;-59
2021/05/28 08:33:11;;;;;;;47.70;27.30;;;10.90;1.00;;;;;;5072071;28;20287;-58
2021/05/28 08:35:38;;;;;;;55.00;27.60;;;10.70;1.00;;;;;;5071815;28;20679;-60
2021/05/28 08:38:04;;;;;;;43.20;24.87;;;10.70;1.00;;;;;;5071968;28;20216;-59
2021/05/28 08:40:32;;;;;;;44.10;23.63;;;10.80;1.00;;;;;;5071452;28;20762;-60
2021/05/28 08:43:00;;;;;;;46.13;25.03;;;11.00;1.00;;;;;;5071885;28;20681;-60
2021/05/28 08:45:27;;;;;;;42.53;22.30;;;11.10;1.00;;;;;;5071852;28;20225;-60
2021/05/28 08:47:54;;;;;;;47.00;24.20;;;11.10;1.00;;;;;;5071946;28;20211;-59
2021/05/28 08:50:24;;;;;;;51.70;25.47;;;11.40;1.00;;;;;;5071202;28;20197;-61
2021/05/28 08:52:51;;;;;;;47.47;24.53;;;11.40;1.00;;;;;;5072081;28;20209;-60
2021/05/28 08:55:17;;;;;;;46.80;25.60;;;11.30;1.00;;;;;;5071756;28;20278;-60
2021/05/28 08:57:43;;;;;;;51.10;24.87;;;11.60;1.00;;;;;;5071994;28;20254;-58
2021/05/28 09:00:11;;;;;;;48.57;25.27;;;11.70;1.00;;;;;;5071516;28;20635;-60
2021/05/28 09:02:39;;;;;;;42.33;21.57;;;12.10;1.00;;;;;;5071989;28;20207;-56
2021/05/28 09:05:12;;;;;;;30.87;18.10;;;12.30;1.00;;;;;;5071540;28;20236;-60
2021/05/28 09:07:41;;;;;;;32.13;19.00;;;12.60;99.90;;;;;;5072223;28;20213;-61
2021/05/28 09:10:27;;;;;;;30.93;16.67;;;12.20;99.90;;;;;;5071900;28;20209;-58
2021/05/28 09:12:53;;;;;;;36.50;19.80;;;11.90;99.90;;;;;;5072142;28;20209;-60
2021/05/28 09:15:21;;;;;;;34.20;19.23;;;12.20;99.90;;;;;;5071885;28;20641;-59
2021/05/28 09:17:48;;;;;;;36.90;20.13;;;12.30;99.90;;;;;;5072047;28;20598;-60
2021/05/28 09:20:15;;;;;;;35.70;19.00;;;12.40;99.90;;;;;;5071468;28;20270;-59
2021/05/28 09:22:41;;;;;;;36.63;19.87;;;12.60;99.90;;;;;;5071616;28;20215;-59
2021/05/28 09:25:08;;;;;;;42.57;23.70;;;12.80;99.90;;;;;;5071929;28;20232;-60
2021/05/28 09:27:37;;;;;;;29.70;14.90;;;13.00;99.90;;;;;;5071584;28;20211;-60
2021/05/28 09:30:09;;;;;;;22.93;13.93;;;13.10;99.90;;;;;;5073312;28;20215;-60
2021/05/28 09:32:38;;;;;;;27.43;15.77;;;13.20;99.90;;;;;;5075664;28;20209;-60
2021/05/28 09:35:08;;;;;;;32.23;19.37;;;13.30;99.90;;;;;;5075619;28;20224;-59
2021/05/28 09:37:37;;;;;;;33.27;18.13;;;13.40;99.90;;;;;;5075359;28;20201;-56
2021/05/28 09:40:05;;;;;;;34.30;18.57;;;13.50;99.90;;;;;;5074985;28;20270;-59
2021/05/28 09:42:46;;;;;;;31.73;16.57;;;13.80;99.90;;;;;;5074973;28;20215;-60
2021/05/28 09:45:21;;;;;;;36.00;19.60;;;14.00;99.90;;;;;;5075206;28;20225;-57
2021/05/28 09:47:47;;;;;;;34.00;18.63;;;13.90;99.90;;;;;;5075352;28;20258;-60
2021/05/28 09:50:14;;;;;;;29.87;17.03;;;14.00;99.90;;;;;;5074686;28;20254;-60
2021/05/28 09:52:41;;;;;;;33.23;19.20;;;14.00;99.90;;;;;;5074499;28;20260;-60
2021/05/28 09:55:09;;;;;;;31.50;17.07;;;14.10;99.90;;;;;;5074829;28;20239;-60
2021/05/28 09:57:37;;;;;;;33.20;18.20;;;14.10;99.90;;;;;;5075000;28;20237;-60
2021/05/28 10:00:06;;;;;;;34.60;17.87;;;14.00;99.90;;;;;;5074534;28;20225;-60
2021/05/28 10:02:33;;;;;;;23.50;13.47;;;14.10;99.90;;;;;;5074885;28;20208;-60
2021/05/28 10:05:00;;;;;;;25.77;11.80;;;14.30;99.90;;;;;;5074569;28;20228;-61
2021/05/28 10:07:28;;;;;;;16.87;10.33;;;14.40;99.90;;;;;;5074575;28;20205;-59
2021/05/28 10:09:56;;;;;;;19.57;10.80;;;14.40;99.90;;;;;;5074419;28;20209;-61
2021/05/28 10:12:23;;;;;;;17.73;9.80;;;14.40;99.90;;;;;;5074758;28;20205;-60
2021/05/28 10:14:51;;;;;;;17.77;9.77;;;14.50;99.90;;;;;;5074644;28;20229;-60
2021/05/28 10:17:18;;;;;;;18.23;11.10;;;14.80;99.90;;;;;;5074781;28;20625;-60
2021/05/28 10:19:45;;;;;;;23.37;11.97;;;14.90;99.90;;;;;;5074332;28;20212;-60
2021/05/28 10:22:12;;;;;;;17.97;11.00;;;14.80;99.90;;;;;;5074342;28;20208;-61
2021/05/28 10:24:39;;;;;;;19.53;11.70;;;14.70;99.90;;;;;;5074382;28;20231;-61
2021/05/28 10:27:07;;;;;;;21.10;11.97;;;14.60;99.90;;;;;;5074613;28;20581;-60
2021/05/28 10:29:34;;;;;;;23.93;12.67;;;14.80;99.90;;;;;;5074258;28;20624;-61
2021/05/28 10:32:01;;;;;;;19.93;11.67;;;15.00;99.90;;;;;;5074293;28;20204;-61
2021/05/28 10:34:29;;;;;;;19.23;11.13;;;15.00;99.90;;;;;;5074019;28;20213;-61
2021/05/28 10:36:57;;;;;;;17.67;10.33;;;14.80;99.90;;;;;;5074161;28;20666;-60
2021/05/28 10:39:24;;;;;;;18.40;10.67;;;14.70;99.90;;;;;;5074233;28;20209;-61
2021/05/28 10:41:54;;;;;;;17.93;10.77;;;14.70;99.90;;;;;;5073239;28;20753;-60
2021/05/28 10:44:25;;;;;;;24.50;13.70;;;14.70;99.90;;;;;;5074311;28;20240;-61
2021/05/28 10:47:18;;;;;;;23.93;13.67;;;14.60;99.90;;;;;;5074217;28;20200;-60
2021/05/28 10:49:45;;;;;;;24.47;15.03;;;14.80;99.90;;;;;;5074177;28;20270;-59
2021/05/28 10:52:14;;;;;;;17.17;11.77;;;15.20;99.90;;;;;;5073908;28;20209;-60
2021/05/28 10:54:45;;;;;;;19.03;10.97;;;15.00;99.90;;;;;;5073848;28;20212;-61
2021/05/28 10:57:18;;;;;;;19.83;11.00;;;14.80;99.90;;;;;;5073788;28;20208;-61
2021/05/28 10:59:47;;;;;;;19.30;10.60;;;14.90;99.90;;;;;;5073764;28;20262;-61
2021/05/28 11:02:14;;;;;;;17.73;9.70;;;15.00;99.90;;;;;;5074141;28;20205;-60
2021/05/28 11:04:59;;;;;;;17.77;9.10;;;15.10;99.90;;;;;;5074400;28;20201;-61
2021/05/28 11:07:33;;;;;;;18.87;9.87;;;15.20;99.90;;;;;;5074102;28;20424;-60
2021/05/28 11:10:15;;;;;;;11.13;7.60;;;15.40;99.90;;;;;;5073619;28;20295;-60
2021/05/28 11:12:42;;;;;;;16.33;9.40;;;15.60;99.90;;;;;;5074092;28;20227;-61
2021/05/28 11:15:12;;;;;;;13.33;8.50;;;15.60;99.90;;;;;;5073611;28;20232;-60
2021/05/28 11:17:51;;;;;;;15.67;8.33;;;15.70;99.90;;;;;;5073555;28;20661;-61
2021/05/28 11:20:25;;;;;;;14.80;8.60;;;15.90;99.90;;;;;;5072867;28;20307;-60
2021/05/28 11:22:51;;;;;;;15.70;7.97;;;15.90;99.90;;;;;;5073874;28;20212;-61
2021/05/28 11:25:19;;;;;;;13.80;8.00;;;15.90;99.90;;;;;;5073555;28;20224;-60
2021/05/28 11:27:58;;;;;;;12.10;6.57;;;15.80;99.90;;;;;;5073110;28;20208;-61
2021/05/28 11:30:36;;;;;;;10.30;6.03;;;15.90;99.90;;;;;;5072998;28;20201;-60
2021/05/28 11:33:03;;;;;;;11.67;7.07;;;15.60;99.90;;;;;;5073140;28;20649;-61
2021/05/28 11:35:37;;;;;;;10.03;5.83;;;15.80;99.90;;;;;;5073190;28;20229;-61
2021/05/28 11:38:05;;;;;;;8.90;5.30;;;15.70;99.90;;;;;;5073100;28;20209;-59
2021/05/28 11:40:38;;;;;;;9.53;6.20;;;15.70;99.90;;;;;;5072635;28;20716;-60
2021/05/28 11:43:06;;;;;;;8.87;4.67;;;15.80;99.90;;;;;;5072958;28;20288;-61
2021/05/28 11:45:34;;;;;;;4.57;2.40;;;16.10;99.90;;;;;;5072989;28;20229;-61
2021/05/28 11:48:01;;;;;;;5.53;2.67;;;16.40;99.90;;;;;;5073022;28;20887;-60
2021/05/28 11:50:39;;;;;;;7.07;3.37;;;16.50;99.90;;;;;;5072734;28;20204;-60
2021/05/28 11:53:08;;;;;;;3.87;2.93;;;16.40;99.90;;;;;;5072065;28;20204;-58
2021/05/28 11:55:43;;;;;;;5.03;3.37;;;16.40;99.90;;;;;;5072710;28;20232;-60
2021/05/28 11:58:09;;;;;;;4.43;3.40;;;16.60;99.90;;;;;;5072913;28;20295;-59
2021/05/28 12:00:37;;;;;;;5.53;3.80;;;16.80;99.90;;;;;;5072350;28;20221;-60
2021/05/28 12:03:03;;;;;;;3.67;2.90;;;16.80;99.90;;;;;;5072882;28;20258;-60
2021/05/28 12:05:34;;;;;;;4.90;3.60;;;16.80;99.90;;;;;;5072673;28;20235;-60
2021/05/28 12:08:14;;;;;;;5.47;3.57;;;16.60;99.90;;;;;;5072947;28;20205;-61
2021/05/28 12:10:42;;;;;;;5.40;4.10;;;16.50;99.90;;;;;;5072124;28;20200;-60
2021/05/28 12:13:10;;;;;;;8.53;4.83;;;16.40;99.90;;;;;;5072465;28;20208;-61
2021/05/28 12:15:39;;;;;;;5.60;4.10;;;16.50;99.90;;;;;;5072163;28;20229;-61
2021/05/28 12:18:14;;;;;;;7.37;4.57;;;16.60;99.90;;;;;;5072289;28;20208;-61
2021/05/28 12:20:42;;;;;;;5.33;4.33;;;16.70;99.90;;;;;;5071609;28;20227;-58
2021/05/28 12:23:12;;;;;;;6.17;4.20;;;16.80;99.90;;;;;;5072543;28;20212;-60
2021/05/28 12:25:43;;;;;;;6.97;4.57;;;16.70;99.90;;;;;;5072394;28;20224;-61
2021/05/28 12:28:37;;;;;;;5.80;4.00;;;17.00;99.90;;;;;;5070404;28;20257;-62
2021/05/28 12:31:18;;;;;;;4.93;3.33;;;17.10;99.90;;;;;;5058485;28;20197;-62
2021/05/28 12:33:47;;;;;;;5.63;4.03;;;17.00;99.90;;;;;;5071757;28;20675;-64
2021/05/28 12:36:14;;;;;;;6.43;4.73;;;17.10;99.90;;;;;;5071688;28;20247;-65
2021/05/28 12:38:42;;;;;;;9.37;4.67;;;17.20;99.90;;;;;;5071467;28;20209;-64
2021/05/28 12:41:10;;;;;;;6.13;4.57;;;17.20;99.90;;;;;;5071091;28;20282;-63